sensor_id;sensor_type;location;lat;lon;timestamp;pressure;altitude;pressure_sealevel;temperature;humidity
20023;BME280;10172;42.054;24.546;2023-05-20T00:02:10;98364.63;;;13.21;100.00
20023;BME280;10172;42.054;24.546;2023-05-20T00:04:35;98367.56;;;13.40;100.00
20023;BME280;10172;42.054;24.546;2023-05-20T00:07:00;98360.66;;;13.37;100.00
20023;BME280;10172;42.054;24.546;2023-05-20T00:09:26;98361.34;;;12.93;100.00
20023;BME280;10172;42.054;24.546;2023-05-20T00:11:52;98367.09;;;13.35;100.00
20023;BME280;10172;42.054;24.546;2023-05-20T00:14:17;98358.81;;;13.60;100.00
20023;BME280;10172;42.054;24.546;2023-05-20T00:16:42;98359.25;;;13.09;100.00
20023;BME280;10172;42.054;24.546;2023-05-20T00:19:08;98360.50;;;13.28;100.00
20023;BME280;10172;42.054;24.546;2023-05-20T00:21:33;98349.78;;;13.16;100.00
20023;BME280;10172;42.054;24.546;2023-05-20T00:23:59;98357.50;;;13.54;100.00
20023;BME280;10172;42.054;24.546;2023-05-20T00:26:27;98359.81;;;13.59;100.00
20023;BME280;10172;42.054;24.546;2023-05-20T00:28:53;98356.03;;;13.04;100.00
20023;BME280;10172;42.054;24.546;2023-05-20T00:31:18;98351.06;;;13.00;100.00
20023;BME280;10172;42.054;24.546;2023-05-20T00:33:44;98346.72;;;12.75;100.00
20023;BME280;10172;42.054;24.546;2023-05-20T00:36:09;98342.56;;;12.71;100.00
20023;BME280;10172;42.054;24.546;2023-05-20T00:38:35;98338.91;;;12.61;100.00
20023;BME280;10172;42.054;24.546;2023-05-20T00:41:00;98336.06;;;12.75;100.00
20023;BME280;10172;42.054;24.546;2023-05-20T00:43:26;98328.78;;;12.77;100.00
20023;BME280;10172;42.054;24.546;2023-05-20T00:45:52;98342.13;;;12.77;100.00
20023;BME280;10172;42.054;24.546;2023-05-20T00:48:19;98338.75;;;13.10;100.00
20023;BME280;10172;42.054;24.546;2023-05-20T00:50:46;98334.03;;;13.13;100.00
20023;BME280;10172;42.054;24.546;2023-05-20T00:53:13;98343.97;;;13.23;100.00
20023;BME280;10172;42.054;24.546;2023-05-20T00:55:39;98333.53;;;13.31;100.00
20023;BME280;10172;42.054;24.546;2023-05-20T00:58:05;98340.97;;;13.03;100.00
20023;BME280;10172;42.054;24.546;2023-05-20T01:00:30;98340.31;;;13.12;100.00
20023;BME280;10172;42.054;24.546;2023-05-20T01:02:56;98335.63;;;13.03;100.00
20023;BME280;10172;42.054;24.546;2023-05-20T01:05:21;98342.31;;;13.33;100.00
20023;BME280;10172;42.054;24.546;2023-05-20T01:07:47;98330.41;;;13.92;100.00
20023;BME280;10172;42.054;24.546;2023-05-20T01:10:12;98333.34;;;13.56;100.00
20023;BME280;10172;42.054;24.546;2023-05-20T01:12:42;98334.28;;;13.66;100.00
20023;BME280;10172;42.054;24.546;2023-05-20T01:15:10;98319.19;;;13.09;100.00
20023;BME280;10172;42.054;24.546;2023-05-20T01:17:45;98329.53;;;12.90;100.00
20023;BME280;10172;42.054;24.546;2023-05-20T01:20:12;98321.19;;;12.60;100.00
20023;BME280;10172;42.054;24.546;2023-05-20T01:22:52;98311.22;;;12.86;100.00
20023;BME280;10172;42.054;24.546;2023-05-20T01:25:18;98321.75;;;12.87;100.00
20023;BME280;10172;42.054;24.546;2023-05-20T01:27:43;98311.59;;;13.03;100.00
20023;BME280;10172;42.054;24.546;2023-05-20T01:30:09;98323.13;;;13.72;100.00
20023;BME280;10172;42.054;24.546;2023-05-20T01:32:37;98327.22;;;13.76;100.00
20023;BME280;10172;42.054;24.546;2023-05-20T01:35:05;98323.06;;;13.16;100.00
20023;BME280;10172;42.054;24.546;2023-05-20T01:37:33;98326.28;;;13.33;100.00
20023;BME280;10172;42.054;24.546;2023-05-20T01:40:00;98317.94;;;13.02;100.00
20023;BME280;10172;42.054;24.546;2023-05-20T01:42:26;98309.34;;;13.10;100.00
20023;BME280;10172;42.054;24.546;2023-05-20T01:44:53;98317.63;;;13.73;100.00
20023;BME280;10172;42.054;24.546;2023-05-20T01:47:18;98323.38;;;13.69;100.00
20023;BME280;10172;42.054;24.546;2023-05-20T01:49:44;98324.09;;;13.71;100.00
20023;BME280;10172;42.054;24.546;2023-05-20T01:52:11;98324.91;;;13.16;100.00
20023;BME280;10172;42.054;24.546;2023-05-20T01:54:36;98320.91;;;13.10;100.00
20023;BME280;10172;42.054;24.546;2023-05-20T01:57:02;98314.25;;;13.27;100.00
20023;BME280;10172;42.054;24.546;2023-05-20T01:59:27;98315.59;;;13.33;100.00
20023;BME280;10172;42.054;24.546;2023-05-20T02:01:53;98321.63;;;12.78;100.00
20023;BME280;10172;42.054;24.546;2023-05-20T02:04:18;98323.59;;;13.22;100.00
20023;BME280;10172;42.054;24.546;2023-05-20T02:06:45;98317.41;;;12.86;100.00
20023;BME280;10172;42.054;24.546;2023-05-20T02:09:11;98310.97;;;13.46;100.00
20023;BME280;10172;42.054;24.546;2023-05-20T02:11:36;98308.22;;;13.01;100.00
20023;BME280;10172;42.054;24.546;2023-05-20T02:14:02;98311.00;;;12.54;100.00
20023;BME280;10172;42.054;24.546;2023-05-20T02:16:27;98309.91;;;12.91;100.00
20023;BME280;10172;42.054;24.546;2023-05-20T02:18:53;98310.22;;;13.77;100.00
20023;BME280;10172;42.054;24.546;2023-05-20T02:21:18;98324.25;;;14.23;100.00
20023;BME280;10172;42.054;24.546;2023-05-20T02:23:44;98315.09;;;13.61;100.00
20023;BME280;10172;42.054;24.546;2023-05-20T02:26:09;98301.63;;;12.83;100.00
20023;BME280;10172;42.054;24.546;2023-05-20T02:28:35;98307.56;;;12.76;100.00
20023;BME280;10172;42.054;24.546;2023-05-20T02:31:04;98303.38;;;13.06;100.00
20023;BME280;10172;42.054;24.546;2023-05-20T02:33:30;98295.69;;;12.91;100.00
20023;BME280;10172;42.054;24.546;2023-05-20T02:35:56;98298.50;;;13.00;100.00
20023;BME280;10172;42.054;24.546;2023-05-20T02:38:21;98288.47;;;12.69;100.00
20023;BME280;10172;42.054;24.546;2023-05-20T02:40:47;98295.66;;;12.80;100.00
20023;BME280;10172;42.054;24.546;2023-05-20T02:43:12;98295.31;;;12.95;100.00
20023;BME280;10172;42.054;24.546;2023-05-20T02:45:38;98299.78;;;12.73;100.00
20023;BME280;10172;42.054;24.546;2023-05-20T02:48:04;98308.56;;;12.97;100.00
20023;BME280;10172;42.054;24.546;2023-05-20T02:50:29;98302.81;;;13.92;100.00
20023;BME280;10172;42.054;24.546;2023-05-20T02:52:55;98315.34;;;13.47;100.00
20023;BME280;10172;42.054;24.546;2023-05-20T02:55:21;98306.41;;;13.02;100.00
20023;BME280;10172;42.054;24.546;2023-05-20T02:57:47;98298.34;;;12.91;100.00
20023;BME280;10172;42.054;24.546;2023-05-20T03:00:13;98298.31;;;12.80;100.00
20023;BME280;10172;42.054;24.546;2023-05-20T03:02:39;98297.94;;;12.15;100.00
20023;BME280;10172;42.054;24.546;2023-05-20T03:05:04;98298.44;;;12.20;100.00
20023;BME280;10172;42.054;24.546;2023-05-20T03:07:32;98292.25;;;12.78;100.00
20023;BME280;10172;42.054;24.546;2023-05-20T03:09:58;98305.78;;;12.98;100.00
20023;BME280;10172;42.054;24.546;2023-05-20T03:12:24;98298.53;;;12.66;100.00
20023;BME280;10172;42.054;24.546;2023-05-20T03:14:51;98293.97;;;13.13;100.00
20023;BME280;10172;42.054;24.546;2023-05-20T03:17:20;98302.00;;;12.55;100.00
20023;BME280;10172;42.054;24.546;2023-05-20T03:19:46;98298.50;;;12.89;100.00
20023;BME280;10172;42.054;24.546;2023-05-20T03:22:11;98306.09;;;13.17;100.00
20023;BME280;10172;42.054;24.546;2023-05-20T03:24:37;98296.28;;;13.29;100.00
20023;BME280;10172;42.054;24.546;2023-05-20T03:27:02;98305.25;;;13.28;100.00
20023;BME280;10172;42.054;24.546;2023-05-20T03:29:28;98316.91;;;13.71;100.00
20023;BME280;10172;42.054;24.546;2023-05-20T03:31:53;98308.03;;;13.60;100.00
20023;BME280;10172;42.054;24.546;2023-05-20T03:34:19;98300.19;;;13.01;100.00
20023;BME280;10172;42.054;24.546;2023-05-20T03:36:44;98304.88;;;13.44;100.00
20023;BME280;10172;42.054;24.546;2023-05-20T03:39:10;98304.59;;;13.02;100.00
20023;BME280;10172;42.054;24.546;2023-05-20T03:41:35;98317.44;;;13.43;100.00
20023;BME280;10172;42.054;24.546;2023-05-20T03:44:02;98315.47;;;13.34;100.00
20023;BME280;10172;42.054;24.546;2023-05-20T03:46:27;98314.34;;;13.26;100.00
20023;BME280;10172;42.054;24.546;2023-05-20T03:48:55;98318.41;;;12.96;100.00
20023;BME280;10172;42.054;24.546;2023-05-20T03:51:20;98322.06;;;13.06;100.00
20023;BME280;10172;42.054;24.546;2023-05-20T03:53:46;98329.41;;;13.15;100.00
20023;BME280;10172;42.054;24.546;2023-05-20T03:56:11;98332.13;;;13.49;100.00
20023;BME280;10172;42.054;24.546;2023-05-20T03:58:37;98331.03;;;13.62;100.00
20023;BME280;10172;42.054;24.546;2023-05-20T04:01:02;98340.34;;;13.68;100.00
20023;BME280;10172;42.054;24.546;2023-05-20T04:03:28;98353.00;;;13.99;100.00
20023;BME280;10172;42.054;24.546;2023-05-20T04:05:54;98358.66;;;14.28;100.00
20023;BME280;10172;42.054;24.546;2023-05-20T04:08:19;98352.59;;;14.37;100.00
20023;BME280;10172;42.054;24.546;2023-05-20T04:10:46;98349.38;;;13.89;100.00
20023;BME280;10172;42.054;24.546;2023-05-20T04:13:11;98361.75;;;13.79;100.00
20023;BME280;10172;42.054;24.546;2023-05-20T04:15:37;98362.34;;;14.16;100.00
20023;BME280;10172;42.054;24.546;2023-05-20T04:18:04;98357.31;;;14.22;100.00
20023;BME280;10172;42.054;24.546;2023-05-20T04:20:32;98360.78;;;13.91;100.00
20023;BME280;10172;42.054;24.546;2023-05-20T04:22:58;98361.56;;;14.25;100.00
20023;BME280;10172;42.054;24.546;2023-05-20T04:25:23;98361.59;;;14.36;100.00
20023;BME280;10172;42.054;24.546;2023-05-20T04:27:50;98362.63;;;14.87;100.00
20023;BME280;10172;42.054;24.546;2023-05-20T04:30:18;98359.50;;;15.44;100.00
20023;BME280;10172;42.054;24.546;2023-05-20T04:32:46;98358.81;;;15.42;100.00
20023;BME280;10172;42.054;24.546;2023-05-20T04:35:12;98355.28;;;15.21;100.00
20023;BME280;10172;42.054;24.546;2023-05-20T04:37:39;98356.84;;;15.65;100.00
20023;BME280;10172;42.054;24.546;2023-05-20T04:40:04;98364.47;;;16.00;100.00
20023;BME280;10172;42.054;24.546;2023-05-20T04:42:31;98357.25;;;16.40;100.00
20023;BME280;10172;42.054;24.546;2023-05-20T04:44:58;98374.53;;;16.07;100.00
20023;BME280;10172;42.054;24.546;2023-05-20T04:47:27;98367.09;;;16.21;100.00
20023;BME280;10172;42.054;24.546;2023-05-20T04:49:54;98368.09;;;16.79;100.00
20023;BME280;10172;42.054;24.546;2023-05-20T04:52:24;98368.09;;;16.79;100.00
20023;BME280;10172;42.054;24.546;2023-05-20T04:54:50;98358.16;;;17.27;100.00
20023;BME280;10172;42.054;24.546;2023-05-20T04:57:16;98361.41;;;17.40;100.00
20023;BME280;10172;42.054;24.546;2023-05-20T04:59:48;98372.78;;;17.80;100.00
20023;BME280;10172;42.054;24.546;2023-05-20T05:02:13;98369.00;;;17.64;100.00
20023;BME280;10172;42.054;24.546;2023-05-20T05:04:39;98367.13;;;17.83;100.00
20023;BME280;10172;42.054;24.546;2023-05-20T05:07:04;98359.78;;;17.66;100.00
20023;BME280;10172;42.054;24.546;2023-05-20T05:09:30;98362.38;;;17.39;100.00
20023;BME280;10172;42.054;24.546;2023-05-20T05:11:55;98362.09;;;17.52;100.00
20023;BME280;10172;42.054;24.546;2023-05-20T05:14:21;98364.31;;;17.75;100.00
20023;BME280;10172;42.054;24.546;2023-05-20T05:16:48;98367.88;;;18.30;100.00
20023;BME280;10172;42.054;24.546;2023-05-20T05:19:14;98369.66;;;18.49;100.00
20023;BME280;10172;42.054;24.546;2023-05-20T05:21:39;98370.00;;;18.81;100.00
20023;BME280;10172;42.054;24.546;2023-05-20T05:24:05;98376.31;;;18.90;100.00
20023;BME280;10172;42.054;24.546;2023-05-20T05:26:30;98374.84;;;18.95;100.00
20023;BME280;10172;42.054;24.546;2023-05-20T05:28:56;98376.00;;;19.10;100.00
20023;BME280;10172;42.054;24.546;2023-05-20T05:31:22;98374.75;;;19.23;100.00
20023;BME280;10172;42.054;24.546;2023-05-20T05:33:47;98370.66;;;19.36;100.00
20023;BME280;10172;42.054;24.546;2023-05-20T05:36:13;98369.66;;;19.37;100.00
20023;BME280;10172;42.054;24.546;2023-05-20T05:38:38;98370.50;;;19.81;100.00
20023;BME280;10172;42.054;24.546;2023-05-20T05:41:03;98370.94;;;19.94;100.00
20023;BME280;10172;42.054;24.546;2023-05-20T05:43:29;98373.78;;;19.93;100.00
20023;BME280;10172;42.054;24.546;2023-05-20T05:45:54;98390.50;;;19.96;100.00
20023;BME280;10172;42.054;24.546;2023-05-20T05:48:20;98387.22;;;20.10;100.00
20023;BME280;10172;42.054;24.546;2023-05-20T05:50:47;98394.97;;;20.39;100.00
20023;BME280;10172;42.054;24.546;2023-05-20T05:53:12;98391.22;;;20.82;100.00
20023;BME280;10172;42.054;24.546;2023-05-20T05:55:38;98382.13;;;20.91;100.00
20023;BME280;10172;42.054;24.546;2023-05-20T05:58:03;98377.72;;;20.98;100.00
20023;BME280;10172;42.054;24.546;2023-05-20T06:00:29;98383.72;;;21.18;100.00
20023;BME280;10172;42.054;24.546;2023-05-20T06:02:54;98388.59;;;21.22;100.00
20023;BME280;10172;42.054;24.546;2023-05-20T06:05:20;98388.97;;;21.68;100.00
20023;BME280;10172;42.054;24.546;2023-05-20T06:07:45;98391.63;;;21.84;99.83
20023;BME280;10172;42.054;24.546;2023-05-20T06:10:11;98398.72;;;21.85;98.74
20023;BME280;10172;42.054;24.546;2023-05-20T06:12:36;98371.56;;;21.38;92.28
20023;BME280;10172;42.054;24.546;2023-05-20T06:15:02;98380.13;;;21.74;92.76
20023;BME280;10172;42.054;24.546;2023-05-20T06:17:28;98370.88;;;22.31;88.89
20023;BME280;10172;42.054;24.546;2023-05-20T06:19:53;98369.44;;;22.51;89.60
20023;BME280;10172;42.054;24.546;2023-05-20T06:22:19;98371.06;;;22.30;83.50
20023;BME280;10172;42.054;24.546;2023-05-20T06:24:44;98364.31;;;22.56;91.47
20023;BME280;10172;42.054;24.546;2023-05-20T06:27:10;98368.03;;;22.63;85.26
20023;BME280;10172;42.054;24.546;2023-05-20T06:29:36;98358.09;;;22.87;84.80
20023;BME280;10172;42.054;24.546;2023-05-20T06:32:01;98369.00;;;23.01;87.15
20023;BME280;10172;42.054;24.546;2023-05-20T06:34:27;98364.25;;;23.49;85.27
20023;BME280;10172;42.054;24.546;2023-05-20T06:36:52;98357.63;;;23.51;82.21
20023;BME280;10172;42.054;24.546;2023-05-20T06:39:18;98347.78;;;23.50;88.23
20023;BME280;10172;42.054;24.546;2023-05-20T06:41:43;98357.28;;;23.69;84.37
20023;BME280;10172;42.054;24.546;2023-05-20T06:44:09;98351.91;;;22.93;77.12
20023;BME280;10172;42.054;24.546;2023-05-20T06:46:34;98345.44;;;23.02;77.00
20023;BME280;10172;42.054;24.546;2023-05-20T06:49:00;98344.34;;;23.11;70.84
20023;BME280;10172;42.054;24.546;2023-05-20T06:51:26;98332.16;;;23.30;77.32
20023;BME280;10172;42.054;24.546;2023-05-20T06:53:52;98336.75;;;22.06;82.22
20023;BME280;10172;42.054;24.546;2023-05-20T06:56:18;98345.16;;;22.66;79.26
20023;BME280;10172;42.054;24.546;2023-05-20T06:58:43;98348.25;;;22.47;75.37
20023;BME280;10172;42.054;24.546;2023-05-20T07:01:09;98338.13;;;22.49;75.44
20023;BME280;10172;42.054;24.546;2023-05-20T07:03:34;98344.16;;;23.12;80.35
20023;BME280;10172;42.054;24.546;2023-05-20T07:06:00;98350.59;;;22.27;78.93
20023;BME280;10172;42.054;24.546;2023-05-20T07:08:26;98345.84;;;22.68;75.54
20023;BME280;10172;42.054;24.546;2023-05-20T07:10:54;98350.53;;;21.72;79.50
20023;BME280;10172;42.054;24.546;2023-05-20T07:13:20;98352.94;;;22.69;75.28
20023;BME280;10172;42.054;24.546;2023-05-20T07:15:48;98342.13;;;21.19;79.40
20023;BME280;10172;42.054;24.546;2023-05-20T07:18:14;98346.84;;;21.25;82.78
20023;BME280;10172;42.054;24.546;2023-05-20T07:20:40;98343.22;;;21.97;80.58
20023;BME280;10172;42.054;24.546;2023-05-20T07:23:06;98343.91;;;21.91;80.26
20023;BME280;10172;42.054;24.546;2023-05-20T07:25:31;98341.22;;;21.67;80.15
20023;BME280;10172;42.054;24.546;2023-05-20T07:27:57;98355.06;;;22.43;79.55
20023;BME280;10172;42.054;24.546;2023-05-20T07:30:24;98351.56;;;22.96;75.90
20023;BME280;10172;42.054;24.546;2023-05-20T07:32:49;98354.22;;;22.42;76.26
20023;BME280;10172;42.054;24.546;2023-05-20T07:35:15;98357.88;;;22.57;76.27
20023;BME280;10172;42.054;24.546;2023-05-20T07:37:40;98366.31;;;22.32;72.70
20023;BME280;10172;42.054;24.546;2023-05-20T07:40:06;98368.19;;;22.93;73.53
20023;BME280;10172;42.054;24.546;2023-05-20T07:42:32;98352.25;;;23.43;75.03
20023;BME280;10172;42.054;24.546;2023-05-20T07:44:58;98360.28;;;23.14;75.43
20023;BME280;10172;42.054;24.546;2023-05-20T07:47:24;98353.22;;;23.50;73.11
20023;BME280;10172;42.054;24.546;2023-05-20T07:49:49;98366.13;;;22.72;73.15
20023;BME280;10172;42.054;24.546;2023-05-20T07:52:14;98358.19;;;22.71;75.52
20023;BME280;10172;42.054;24.546;2023-05-20T07:54:40;98358.69;;;23.79;72.48
20023;BME280;10172;42.054;24.546;2023-05-20T07:57:06;98349.88;;;24.80;67.26
20023;BME280;10172;42.054;24.546;2023-05-20T07:59:31;98347.38;;;25.42;69.95
20023;BME280;10172;42.054;24.546;2023-05-20T08:01:57;98345.38;;;24.87;67.95
20023;BME280;10172;42.054;24.546;2023-05-20T08:04:23;98345.38;;;25.29;67.87
20023;BME280;10172;42.054;24.546;2023-05-20T08:06:48;98349.69;;;24.81;63.76
20023;BME280;10172;42.054;24.546;2023-05-20T08:09:14;98349.94;;;25.22;65.47
20023;BME280;10172;42.054;24.546;2023-05-20T08:11:40;98346.97;;;23.64;70.33
20023;BME280;10172;42.054;24.546;2023-05-20T08:14:05;98351.63;;;24.22;68.34
20023;BME280;10172;42.054;24.546;2023-05-20T08:16:31;98348.69;;;24.53;68.10
20023;BME280;10172;42.054;24.546;2023-05-20T08:18:56;98347.00;;;23.94;67.67
20023;BME280;10172;42.054;24.546;2023-05-20T08:21:22;98339.59;;;23.13;71.26
20023;BME280;10172;42.054;24.546;2023-05-20T08:23:48;98342.28;;;23.13;70.48
20023;BME280;10172;42.054;24.546;2023-05-20T08:26:14;98319.41;;;23.38;69.18
20023;BME280;10172;42.054;24.546;2023-05-20T08:28:39;98330.66;;;24.16;68.51
20023;BME280;10172;42.054;24.546;2023-05-20T08:31:05;98323.78;;;24.35;69.35
20023;BME280;10172;42.054;24.546;2023-05-20T08:33:30;98328.16;;;23.77;68.73
20023;BME280;10172;42.054;24.546;2023-05-20T08:35:56;98321.34;;;24.25;68.09
20023;BME280;10172;42.054;24.546;2023-05-20T08:38:21;98316.72;;;24.76;63.98
20023;BME280;10172;42.054;24.546;2023-05-20T08:40:55;98319.59;;;23.51;67.76
20023;BME280;10172;42.054;24.546;2023-05-20T08:43:21;98324.88;;;23.67;63.40
20023;BME280;10172;42.054;24.546;2023-05-20T08:45:48;98315.66;;;24.71;64.25
20023;BME280;10172;42.054;24.546;2023-05-20T08:48:15;98317.94;;;25.31;66.22
20023;BME280;10172;42.054;24.546;2023-05-20T08:50:42;98326.34;;;25.36;65.98
20023;BME280;10172;42.054;24.546;2023-05-20T08:53:08;98318.72;;;25.46;66.30
20023;BME280;10172;42.054;24.546;2023-05-20T08:55:41;98319.25;;;25.56;65.65
20023;BME280;10172;42.054;24.546;2023-05-20T08:58:08;98320.19;;;25.70;65.46
20023;BME280;10172;42.054;24.546;2023-05-20T09:00:34;98316.72;;;25.12;64.01
20023;BME280;10172;42.054;24.546;2023-05-20T09:02:59;98323.28;;;25.18;65.55
20023;BME280;10172;42.054;24.546;2023-05-20T09:05:25;98311.44;;;25.46;67.29
20023;BME280;10172;42.054;24.546;2023-05-20T09:07:51;98320.41;;;25.68;68.43
20023;BME280;10172;42.054;24.546;2023-05-20T09:10:18;98315.88;;;25.54;68.71
20023;BME280;10172;42.054;24.546;2023-05-20T09:12:44;98300.97;;;25.29;71.61
20023;BME280;10172;42.054;24.546;2023-05-20T09:15:10;98308.91;;;25.73;71.22
20023;BME280;10172;42.054;24.546;2023-05-20T09:17:36;98305.25;;;25.93;71.00
20023;BME280;10172;42.054;24.546;2023-05-20T09:20:09;98314.66;;;26.19;70.11
20023;BME280;10172;42.054;24.546;2023-05-20T09:22:35;98304.50;;;26.06;70.41
20023;BME280;10172;42.054;24.546;2023-05-20T09:25:01;98299.81;;;25.93;64.48
20023;BME280;10172;42.054;24.546;2023-05-20T09:27:27;98300.47;;;25.19;66.99
20023;BME280;10172;42.054;24.546;2023-05-20T09:29:52;98313.28;;;25.04;65.49
20023;BME280;10172;42.054;24.546;2023-05-20T09:32:20;98306.81;;;25.26;65.95
20023;BME280;10172;42.054;24.546;2023-05-20T09:34:48;98304.78;;;25.34;67.21
20023;BME280;10172;42.054;24.546;2023-05-20T09:37:16;98313.03;;;25.69;64.50
20023;BME280;10172;42.054;24.546;2023-05-20T09:39:51;98309.66;;;25.60;66.86
20023;BME280;10172;42.054;24.546;2023-05-20T09:42:21;98304.72;;;24.85;65.88
20023;BME280;10172;42.054;24.546;2023-05-20T09:44:52;98297.25;;;24.73;68.99
20023;BME280;10172;42.054;24.546;2023-05-20T09:47:18;98303.88;;;24.49;69.71
20023;BME280;10172;42.054;24.546;2023-05-20T09:49:47;98298.44;;;24.49;70.07
20023;BME280;10172;42.054;24.546;2023-05-20T09:52:14;98302.09;;;24.92;66.07
20023;BME280;10172;42.054;24.546;2023-05-20T09:54:42;98299.16;;;25.15;69.57
20023;BME280;10172;42.054;24.546;2023-05-20T09:57:08;98287.72;;;25.19;66.69
20023;BME280;10172;42.054;24.546;2023-05-20T09:59:36;98288.53;;;25.41;65.06
20023;BME280;10172;42.054;24.546;2023-05-20T10:02:04;98282.19;;;25.13;66.76
20023;BME280;10172;42.054;24.546;2023-05-20T10:04:32;98283.47;;;24.95;70.80
20023;BME280;10172;42.054;24.546;2023-05-20T10:10:07;98285.13;;;25.39;66.42
20023;BME280;10172;42.054;24.546;2023-05-20T10:15:29;98278.19;;;25.09;70.37
20023;BME280;10172;42.054;24.546;2023-05-20T10:20:50;98275.41;;;25.02;71.97
20023;BME280;10172;42.054;24.546;2023-05-20T10:23:29;98283.75;;;25.01;69.67
20023;BME280;10172;42.054;24.546;2023-05-20T10:25:55;98277.38;;;24.72;67.25
20023;BME280;10172;42.054;24.546;2023-05-20T10:28:33;98280.63;;;24.82;70.76
20023;BME280;10172;42.054;24.546;2023-05-20T10:31:00;98269.25;;;24.93;70.37
20023;BME280;10172;42.054;24.546;2023-05-20T10:33:26;98275.59;;;24.29;68.14
20023;BME280;10172;42.054;24.546;2023-05-20T10:35:53;98271.75;;;24.38;73.02
20023;BME280;10172;42.054;24.546;2023-05-20T10:38:19;98287.34;;;24.29;74.30
20023;BME280;10172;42.054;24.546;2023-05-20T10:40:46;98291.53;;;24.03;77.67
20023;BME280;10172;42.054;24.546;2023-05-20T10:43:14;98296.09;;;23.58;80.08
20023;BME280;10172;42.054;24.546;2023-05-20T10:45:54;98305.94;;;23.22;94.59
20023;BME280;10172;42.054;24.546;2023-05-20T10:48:32;98303.81;;;23.09;100.00
20023;BME280;10172;42.054;24.546;2023-05-20T10:51:00;98309.31;;;23.24;100.00
20023;BME280;10172;42.054;24.546;2023-05-20T10:53:28;98318.31;;;23.02;100.00
20023;BME280;10172;42.054;24.546;2023-05-20T10:55:55;98317.75;;;22.14;100.00
20023;BME280;10172;42.054;24.546;2023-05-20T10:58:23;98304.03;;;20.14;100.00
20023;BME280;10172;42.054;24.546;2023-05-20T11:00:53;98321.72;;;20.50;100.00
20023;BME280;10172;42.054;24.546;2023-05-20T11:03:21;98314.28;;;19.77;100.00
20023;BME280;10172;42.054;24.546;2023-05-20T11:05:46;98295.44;;;19.33;100.00
20023;BME280;10172;42.054;24.546;2023-05-20T11:08:12;98295.72;;;20.07;100.00
20023;BME280;10172;42.054;24.546;2023-05-20T11:10:38;98290.03;;;19.07;100.00
20023;BME280;10172;42.054;24.546;2023-05-20T11:13:04;98288.41;;;19.92;100.00
20023;BME280;10172;42.054;24.546;2023-05-20T11:15:30;98289.47;;;20.07;100.00
20023;BME280;10172;42.054;24.546;2023-05-20T11:17:59;98278.19;;;20.19;100.00
20023;BME280;10172;42.054;24.546;2023-05-20T11:20:25;98281.53;;;19.38;100.00
20023;BME280;10172;42.054;24.546;2023-05-20T11:22:52;98278.56;;;19.49;100.00
20023;BME280;10172;42.054;24.546;2023-05-20T11:25:18;98283.66;;;20.27;100.00
20023;BME280;10172;42.054;24.546;2023-05-20T11:27:44;98276.44;;;20.52;100.00
20023;BME280;10172;42.054;24.546;2023-05-20T11:30:12;98283.72;;;21.65;100.00
20023;BME280;10172;42.054;24.546;2023-05-20T11:32:44;98284.31;;;22.60;100.00
20023;BME280;10172;42.054;24.546;2023-05-20T11:35:23;98280.53;;;23.15;100.00
20023;BME280;10172;42.054;24.546;2023-05-20T11:37:54;98275.97;;;23.38;100.00
20023;BME280;10172;42.054;24.546;2023-05-20T11:40:23;98277.69;;;23.98;100.00
20023;BME280;10172;42.054;24.546;2023-05-20T11:42:52;98285.69;;;23.47;100.00
20023;BME280;10172;42.054;24.546;2023-05-20T11:45:18;98281.88;;;23.56;96.27
20023;BME280;10172;42.054;24.546;2023-05-20T11:47:43;98270.53;;;23.15;100.00
20023;BME280;10172;42.054;24.546;2023-05-20T11:50:10;98279.50;;;22.79;100.00
20023;BME280;10172;42.054;24.546;2023-05-20T11:52:41;98279.84;;;22.76;100.00
20023;BME280;10172;42.054;24.546;2023-05-20T11:55:09;98271.88;;;23.34;100.00
20023;BME280;10172;42.054;24.546;2023-05-20T11:57:37;98273.00;;;23.62;97.08
20023;BME280;10172;42.054;24.546;2023-05-20T12:00:02;98271.59;;;23.52;94.15
20023;BME280;10172;42.054;24.546;2023-05-20T12:02:31;98267.38;;;24.08;85.93
20023;BME280;10172;42.054;24.546;2023-05-20T12:04:56;98270.88;;;24.16;92.91
20023;BME280;10172;42.054;24.546;2023-05-20T12:07:22;98275.88;;;24.34;84.88
20023;BME280;10172;42.054;24.546;2023-05-20T12:09:47;98264.75;;;24.00;87.18
20023;BME280;10172;42.054;24.546;2023-05-20T12:12:13;98262.59;;;24.10;83.28
20023;BME280;10172;42.054;24.546;2023-05-20T12:14:38;98271.13;;;23.92;82.88
20023;BME280;10172;42.054;24.546;2023-05-20T12:17:04;98261.91;;;23.49;85.25
20023;BME280;10172;42.054;24.546;2023-05-20T12:19:29;98255.66;;;23.63;82.59
20023;BME280;10172;42.054;24.546;2023-05-20T12:21:55;98257.19;;;23.95;83.43
20023;BME280;10172;42.054;24.546;2023-05-20T12:24:20;98258.94;;;24.53;82.04
20023;BME280;10172;42.054;24.546;2023-05-20T12:26:46;98258.19;;;24.59;73.50
20023;BME280;10172;42.054;24.546;2023-05-20T12:29:11;98256.81;;;25.06;72.71
20023;BME280;10172;42.054;24.546;2023-05-20T12:31:37;98242.38;;;23.98;73.59
20023;BME280;10172;42.054;24.546;2023-05-20T12:34:02;98253.50;;;23.59;76.68
20023;BME280;10172;42.054;24.546;2023-05-20T12:36:28;98250.78;;;24.03;75.47
20023;BME280;10172;42.054;24.546;2023-05-20T12:38:53;98249.03;;;23.95;74.95
20023;BME280;10172;42.054;24.546;2023-05-20T12:41:19;98249.78;;;23.60;76.93
20023;BME280;10172;42.054;24.546;2023-05-20T12:43:45;98242.88;;;23.35;75.92
20023;BME280;10172;42.054;24.546;2023-05-20T12:46:11;98234.78;;;23.64;78.36
20023;BME280;10172;42.054;24.546;2023-05-20T12:48:36;98222.59;;;23.45;80.24
20023;BME280;10172;42.054;24.546;2023-05-20T12:51:02;98225.13;;;24.05;74.54